Time;durP1;ratioP1;P1;durP2;ratioP2;P2;SDS_P1;SDS_P2;PMS_P1;PMS_P2;Temp;Humidity;BMP_temperature;BMP_pressure;BME280_temperature;BME280_humidity;BME280_pressure;Samples;Min_cycle;Max_cycle;Signal;HPM_P1;HPM_P2
2021/12/29 00:01:51;;;;;;;2.22;1.20;;;17.00;54.60;;;;;;5045648;28;20116;-70
2021/12/29 00:04:17;;;;;;;1.95;1.10;;;17.00;54.60;;;;;;5049901;28;20025;-70
2021/12/29 00:06:43;;;;;;;1.55;1.05;;;17.00;54.60;;;;;;5049739;28;20027;-70
2021/12/29 00:09:09;;;;;;;1.45;0.90;;;16.90;54.60;;;;;;5049333;28;20055;-70
2021/12/29 00:11:40;;;;;;;1.40;1.00;;;16.90;54.60;;;;;;5049386;28;20476;-71
2021/12/29 00:14:07;;;;;;;2.83;1.30;;;16.90;54.60;;;;;;5047754;28;20456;-71
2021/12/29 00:16:35;;;;;;;1.30;0.80;;;16.90;54.60;;;;;;5049453;28;20056;-70
2021/12/29 00:19:02;;;;;;;2.20;1.10;;;16.90;54.60;;;;;;5049015;28;20102;-70
2021/12/29 00:21:29;;;;;;;1.48;1.02;;;16.90;54.70;;;;;;5048466;28;20106;-70
2021/12/29 00:23:58;;;;;;;2.00;1.30;;;16.90;54.80;;;;;;5049098;28;20198;-70
2021/12/29 00:26:28;;;;;;;1.80;1.02;;;16.80;54.70;;;;;;5049223;28;20029;-70
2021/12/29 00:28:54;;;;;;;2.13;1.20;;;16.80;54.70;;;;;;5048925;28;20036;-70
2021/12/29 00:31:21;;;;;;;1.70;1.10;;;16.80;54.80;;;;;;5047231;28;20802;-72
2021/12/29 00:33:46;;;;;;;2.08;1.20;;;16.80;54.80;;;;;;5048423;28;20111;-72
2021/12/29 00:36:12;;;;;;;2.03;1.08;;;16.80;54.90;;;;;;5048764;28;20073;-70
2021/12/29 00:38:38;;;;;;;1.52;1.17;;;16.80;54.70;;;;;;5048974;28;20029;-70
2021/12/29 00:41:04;;;;;;;1.23;0.90;;;16.80;54.80;;;;;;5048966;28;20661;-70
2021/12/29 00:43:29;;;;;;;1.50;1.15;;;16.80;54.90;;;;;;5049017;28;20033;-70
2021/12/29 00:45:55;;;;;;;1.27;1.00;;;16.80;54.90;;;;;;5049327;28;20044;-70
2021/12/29 00:48:23;;;;;;;1.58;0.90;;;16.80;54.90;;;;;;5048680;28;20086;-70
2021/12/29 00:50:49;;;;;;;1.77;0.90;;;16.80;54.90;;;;;;5048475;28;20029;-70
2021/12/29 00:53:16;;;;;;;2.13;1.20;;;16.80;54.80;;;;;;5048760;28;20029;-70
2021/12/29 00:55:43;;;;;;;2.53;1.10;;;16.80;54.80;;;;;;5048254;28;20094;-69
2021/12/29 00:58:09;;;;;;;1.40;0.93;;;16.80;54.80;;;;;;5049210;28;20032;-70
2021/12/29 01:00:37;;;;;;;1.17;0.90;;;16.90;54.80;;;;;;5049449;28;20029;-70
2021/12/29 01:03:06;;;;;;;1.95;1.15;;;16.90;54.80;;;;;;5048415;28;20079;-70
2021/12/29 01:05:32;;;;;;;1.88;1.00;;;16.90;54.80;;;;;;5048254;28;20495;-70
2021/12/29 01:07:57;;;;;;;2.05;1.02;;;16.90;54.70;;;;;;5048525;28;20029;-70
2021/12/29 01:10:24;;;;;;;1.42;1.00;;;16.90;54.60;;;;;;5048401;28;20103;-69
2021/12/29 01:12:57;;;;;;;1.38;0.90;;;16.90;54.70;;;;;;5048565;28;20053;-70
2021/12/29 01:15:28;;;;;;;1.42;1.08;;;16.90;54.70;;;;;;5048015;28;20074;-70
2021/12/29 01:17:56;;;;;;;1.23;0.98;;;16.90;54.60;;;;;;5048178;28;20076;-70
2021/12/29 01:20:22;;;;;;;2.72;1.40;;;16.90;54.50;;;;;;5048534;28;20033;-70
2021/12/29 01:22:48;;;;;;;1.98;1.17;;;16.90;54.50;;;;;;5047706;28;20029;-70
2021/12/29 01:25:14;;;;;;;1.70;0.98;;;16.90;54.40;;;;;;5048007;28;20029;-69
2021/12/29 01:27:40;;;;;;;1.95;0.90;;;17.00;54.40;;;;;;5048672;28;20040;-70
2021/12/29 01:30:10;;;;;;;1.77;0.90;;;17.00;54.40;;;;;;5047889;28;20574;-72
2021/12/29 01:32:37;;;;;;;1.52;0.95;;;17.00;54.50;;;;;;5047885;28;20029;-70
2021/12/29 01:35:04;;;;;;;1.70;0.90;;;17.00;54.40;;;;;;5048001;28;20037;-70
2021/12/29 01:37:30;;;;;;;1.45;0.95;;;17.00;54.40;;;;;;5047234;28;20044;-70
2021/12/29 01:39:56;;;;;;;1.30;0.95;;;17.00;54.40;;;;;;5047813;28;20051;-70
2021/12/29 01:42:21;;;;;;;1.50;0.90;;;17.00;54.30;;;;;;5047881;28;20419;-70
2021/12/29 01:44:47;;;;;;;1.38;1.00;;;17.00;54.30;;;;;;5047590;28;20036;-70
2021/12/29 01:47:27;;;;;;;1.80;0.80;;;17.00;54.30;;;;;;5047622;28;20028;-70
2021/12/29 01:49:53;;;;;;;1.63;0.93;;;17.00;54.30;;;;;;5047596;28;20583;-70
2021/12/29 01:52:24;;;;;;;2.08;1.05;;;17.00;54.30;;;;;;5047339;28;20033;-70
2021/12/29 01:54:50;;;;;;;1.25;0.70;;;17.00;54.30;;;;;;5047224;28;20528;-71
2021/12/29 01:57:17;;;;;;;2.22;1.00;;;17.00;54.30;;;;;;5047494;28;20043;-69
2021/12/29 01:59:42;;;;;;;1.20;0.90;;;17.00;54.20;;;;;;5047503;28;20055;-70
2021/12/29 02:02:08;;;;;;;1.20;0.70;;;17.00;54.20;;;;;;5047038;28;20056;-70
2021/12/29 02:04:34;;;;;;;1.52;0.88;;;17.00;54.20;;;;;;5047143;28;20041;-70
2021/12/29 02:07:00;;;;;;;1.60;0.93;;;17.00;54.20;;;;;;5047404;28;20025;-70
2021/12/29 02:09:26;;;;;;;2.03;1.00;;;17.00;54.20;;;;;;5047071;28;20094;-69
2021/12/29 02:11:52;;;;;;;0.93;0.80;;;17.00;54.30;;;;;;5046809;28;20479;-70
2021/12/29 02:14:18;;;;;;;1.58;0.80;;;17.00;54.20;;;;;;5047055;28;20125;-70
2021/12/29 02:16:44;;;;;;;2.60;0.80;;;17.00;54.20;;;;;;5046758;28;20111;-71
2021/12/29 02:19:12;;;;;;;1.58;0.80;;;17.00;54.30;;;;;;5047069;28;20147;-70
2021/12/29 02:21:43;;;;;;;1.63;0.90;;;17.00;54.20;;;;;;5047140;28;20040;-70
2021/12/29 02:26:38;;;;;;;1.27;0.80;;;16.90;54.20;;;;;;5046779;28;20029;-70
2021/12/29 02:29:07;;;;;;;1.70;0.80;;;16.90;55.30;;;;;;5046931;28;20025;-70
2021/12/29 02:31:33;;;;;;;1.80;0.63;;;16.90;54.30;;;;;;5047218;28;20040;-70
2021/12/29 02:34:00;;;;;;;1.73;0.70;;;16.90;54.30;;;;;;5047101;28;20128;-70
2021/12/29 02:36:27;;;;;;;0.80;0.70;;;16.90;54.30;;;;;;5046685;28;20028;-70
2021/12/29 02:38:55;;;;;;;1.50;0.88;;;16.90;54.30;;;;;;5046910;28;20032;-70
2021/12/29 02:41:24;;;;;;;1.77;0.70;;;16.90;54.40;;;;;;5047005;28;20025;-70
2021/12/29 02:43:58;;;;;;;1.42;0.70;;;16.90;54.40;;;;;;5046577;28;20036;-70
2021/12/29 02:46:25;;;;;;;1.80;0.73;;;16.80;54.40;;;;;;5046129;28;20037;-70
2021/12/29 02:49:02;;;;;;;1.65;0.75;;;16.90;54.40;;;;;;5046843;28;20060;-70
2021/12/29 02:51:30;;;;;;;1.08;0.70;;;16.90;54.50;;;;;;5046873;28;20029;-70
2021/12/29 02:53:56;;;;;;;2.20;0.80;;;16.80;54.40;;;;;;5046653;28;20025;-70
2021/12/29 02:56:23;;;;;;;1.65;0.73;;;16.80;54.50;;;;;;5046441;28;20029;-70
2021/12/29 02:58:50;;;;;;;0.95;0.57;;;16.80;54.50;;;;;;5046460;28;20037;-70
2021/12/29 03:01:16;;;;;;;1.95;0.70;;;16.80;54.50;;;;;;5046200;28;20484;-70
2021/12/29 03:03:43;;;;;;;1.60;0.70;;;16.80;54.50;;;;;;5046539;28;20032;-70
2021/12/29 03:06:09;;;;;;;2.03;0.80;;;16.80;54.50;;;;;;5046313;28;20041;-70
2021/12/29 03:08:36;;;;;;;1.10;0.70;;;16.80;54.50;;;;;;5046331;28;20056;-70
2021/12/29 03:11:03;;;;;;;0.80;0.52;;;16.80;54.50;;;;;;5046286;28;20025;-70
2021/12/29 03:13:31;;;;;;;1.00;0.80;;;16.70;54.50;;;;;;5046228;28;20037;-69
2021/12/29 03:15:58;;;;;;;1.30;0.70;;;16.70;54.50;;;;;;5045994;28;20476;-71
2021/12/29 03:18:24;;;;;;;2.47;0.80;;;16.70;54.50;;;;;;5045867;28;20077;-70
2021/12/29 03:20:50;;;;;;;1.25;0.80;;;16.70;54.50;;;;;;5045587;28;20033;-70
2021/12/29 03:23:18;;;;;;;1.88;0.80;;;16.70;54.50;;;;;;5045879;28;20037;-70
2021/12/29 03:25:47;;;;;;;1.85;0.82;;;16.70;54.50;;;;;;5045717;28;20028;-70
2021/12/29 03:28:14;;;;;;;1.23;0.65;;;16.70;54.40;;;;;;5044849;28;20454;-69
2021/12/29 03:30:41;;;;;;;1.33;0.70;;;16.70;54.50;;;;;;5046268;28;20036;-70
2021/12/29 03:33:09;;;;;;;1.13;0.70;;;16.70;54.60;;;;;;5046422;28;20025;-70
2021/12/29 03:35:41;;;;;;;1.00;0.70;;;16.70;54.50;;;;;;5046757;28;20037;-70
2021/12/29 03:38:12;;;;;;;1.33;0.73;;;16.70;54.50;;;;;;5047512;28;20071;-71
2021/12/29 03:40:39;;;;;;;0.90;0.63;;;16.70;54.50;;;;;;5049924;28;20111;-70
2021/12/29 03:43:06;;;;;;;1.67;0.80;;;16.70;54.50;;;;;;5049761;28;20021;-70
2021/12/29 03:45:33;;;;;;;2.00;0.60;;;16.70;54.50;;;;;;5050132;28;20040;-70
2021/12/29 03:47:58;;;;;;;0.60;0.60;;;16.70;54.60;;;;;;5049527;28;20083;-70
2021/12/29 03:50:24;;;;;;;1.92;0.60;;;16.70;54.60;;;;;;5049665;28;20503;-70
2021/12/29 03:52:50;;;;;;;0.93;0.60;;;16.70;54.60;;;;;;5050046;28;20492;-70
2021/12/29 03:55:16;;;;;;;1.38;0.55;;;16.70;54.60;;;;;;5049899;28;20103;-70
2021/12/29 03:57:42;;;;;;;1.15;0.65;;;16.70;54.60;;;;;;5049717;28;20047;-70
2021/12/29 05:43:22;;;;;;;1.67;0.70;;;18.70;50.60;;;;;;5106012;23;20043;-71
2021/12/29 05:45:49;;;;;;;2.10;0.75;;;18.70;50.70;;;;;;4950299;29;20039;-70
2021/12/29 05:48:15;;;;;;;1.50;0.70;;;18.60;50.70;;;;;;4949940;29;20053;-70
2021/12/29 05:50:41;;;;;;;2.28;0.80;;;18.60;50.90;;;;;;4949859;29;20059;-70
2021/12/29 05:53:06;;;;;;;1.17;0.60;;;18.50;50.90;;;;;;4949995;29;20073;-70
2021/12/29 05:55:32;;;;;;;1.75;0.63;;;18.50;51.10;;;;;;4950337;29;20023;-70
2021/12/29 05:57:58;;;;;;;1.58;0.60;;;18.40;51.20;;;;;;4949755;29;20038;-70
2021/12/29 06:00:26;;;;;;;1.38;0.68;;;18.30;51.30;;;;;;4948920;28;20051;-70
2021/12/29 06:02:52;;;;;;;1.40;0.50;;;18.30;52.50;;;;;;4949350;29;20046;-70
2021/12/29 06:05:18;;;;;;;1.90;0.80;;;18.20;51.50;;;;;;4949462;29;20485;-70
2021/12/29 06:07:44;;;;;;;2.45;0.60;;;18.20;51.70;;;;;;4949837;29;20043;-71
2021/12/29 06:10:10;;;;;;;2.05;1.00;;;18.10;51.80;;;;;;4949223;29;20035;-70
2021/12/29 06:12:39;;;;;;;1.23;0.68;;;18.10;52.00;;;;;;4949508;29;20027;-70
2021/12/29 06:15:07;;;;;;;1.48;0.65;;;18.00;52.00;;;;;;4949324;29;20082;-70
2021/12/29 06:17:33;;;;;;;2.30;0.82;;;18.00;52.00;;;;;;4949029;29;20122;-71
2021/12/29 06:19:58;;;;;;;2.53;0.98;;;18.00;52.20;;;;;;4931255;29;20500;-70
2021/12/29 06:22:25;;;;;;;1.83;0.90;;;17.90;52.30;;;;;;4949483;29;20054;-70
2021/12/29 06:24:52;;;;;;;2.80;1.00;;;17.80;52.30;;;;;;4949530;29;20058;-70
2021/12/29 06:27:22;;;;;;;1.35;0.80;;;17.80;52.40;;;;;;4949404;29;20110;-71
2021/12/29 06:29:49;;;;;;;2.15;0.90;;;17.70;52.60;;;;;;4949317;29;20094;-70
2021/12/29 06:32:14;;;;;;;0.93;0.60;;;17.70;52.60;;;;;;4949357;29;20101;-70
2021/12/29 06:34:40;;;;;;;1.63;0.90;;;17.70;52.70;;;;;;4948781;29;20442;-70
2021/12/29 06:37:08;;;;;;;1.55;0.77;;;17.60;52.80;;;;;;4948799;29;20070;-70
2021/12/29 06:39:36;;;;;;;1.75;0.95;;;17.60;52.90;;;;;;4948834;29;20023;-70
2021/12/29 06:42:03;;;;;;;1.70;0.80;;;17.60;53.00;;;;;;4948715;29;20405;-70
2021/12/29 06:44:29;;;;;;;1.95;0.88;;;17.50;53.00;;;;;;4948487;29;20119;-70
2021/12/29 06:46:55;;;;;;;2.17;0.90;;;17.50;53.10;;;;;;4948784;29;20441;-70
2021/12/29 06:49:21;;;;;;;1.67;1.00;;;17.50;53.30;;;;;;4948901;29;20023;-70
2021/12/29 06:51:47;;;;;;;1.63;0.82;;;17.50;53.30;;;;;;4948906;29;20027;-70
2021/12/29 06:54:13;;;;;;;1.77;0.80;;;17.40;53.30;;;;;;4948382;29;20042;-70
2021/12/29 06:56:39;;;;;;;1.75;0.85;;;17.40;53.40;;;;;;4948277;29;20078;-70
2021/12/29 06:59:04;;;;;;;1.55;0.82;;;17.30;53.60;;;;;;4948403;29;20063;-69
2021/12/29 07:01:30;;;;;;;1.90;1.02;;;17.30;53.70;;;;;;4948740;29;20038;-70
2021/12/29 07:03:55;;;;;;;1.85;0.93;;;17.30;53.70;;;;;;4948829;29;20615;-70
2021/12/29 07:06:21;;;;;;;2.15;1.00;;;17.20;53.70;;;;;;4948736;29;20059;-69
2021/12/29 07:08:46;;;;;;;1.63;1.00;;;17.20;53.80;;;;;;4949125;29;20483;-69
2021/12/29 07:11:12;;;;;;;1.27;0.90;;;17.20;53.90;;;;;;4948752;28;20060;-70
2021/12/29 07:13:38;;;;;;;1.75;1.10;;;17.20;53.90;;;;;;4948636;29;20090;-69
2021/12/29 07:16:04;;;;;;;1.58;0.80;;;17.10;53.90;;;;;;4948256;29;20028;-70
2021/12/29 07:18:30;;;;;;;2.15;1.00;;;17.10;54.00;;;;;;4946674;29;20579;-69
2021/12/29 07:20:55;;;;;;;2.60;1.15;;;17.10;53.90;;;;;;4948133;29;20042;-69
2021/12/29 07:23:21;;;;;;;2.08;0.95;;;17.10;54.00;;;;;;4948242;29;20024;-70
2021/12/29 07:25:46;;;;;;;1.20;1.05;;;17.00;54.00;;;;;;4948004;29;20130;-69
2021/12/29 07:28:12;;;;;;;2.15;1.20;;;17.00;54.00;;;;;;4948256;29;20050;-69
2021/12/29 07:30:38;;;;;;;1.77;1.05;;;17.00;54.10;;;;;;4948245;29;20035;-69
2021/12/29 07:33:03;;;;;;;1.58;0.70;;;17.00;54.10;;;;;;4948416;29;20034;-69
2021/12/29 07:35:29;;;;;;;2.63;1.15;;;17.00;54.10;;;;;;4948526;29;20019;-69
2021/12/29 07:37:55;;;;;;;2.58;0.95;;;16.90;54.20;;;;;;4948282;29;20106;-69
2021/12/29 07:40:20;;;;;;;1.73;0.75;;;16.90;54.20;;;;;;4948147;29;20023;-70
2021/12/29 07:42:47;;;;;;;2.17;0.80;;;16.90;54.20;;;;;;4948467;29;20497;-69
2021/12/29 07:45:12;;;;;;;1.58;0.82;;;16.90;54.30;;;;;;4948256;29;20113;-70
2021/12/29 07:47:47;;;;;;;2.55;1.00;;;16.90;54.30;;;;;;4948499;29;20438;-70
2021/12/29 07:50:17;;;;;;;1.80;1.00;;;16.90;54.20;;;;;;4931266;29;20106;-71
2021/12/29 07:52:47;;;;;;;2.72;1.05;;;16.90;54.30;;;;;;4948534;29;20059;-70
2021/12/29 07:55:17;;;;;;;1.20;0.80;;;16.90;54.20;;;;;;4948297;29;20138;-70
2021/12/29 07:57:43;;;;;;;1.85;0.90;;;16.90;54.20;;;;;;4948802;29;20039;-70
2021/12/29 08:00:10;;;;;;;2.00;1.02;;;16.90;54.30;;;;;;4948317;29;20033;-70
2021/12/29 08:02:36;;;;;;;1.52;0.80;;;16.90;54.20;;;;;;4948149;29;20042;-71
2021/12/29 08:05:04;;;;;;;2.08;0.85;;;16.90;54.30;;;;;;4947690;29;20036;-70
2021/12/29 08:07:30;;;;;;;1.67;0.70;;;17.00;54.20;;;;;;4948122;29;20534;-69
2021/12/29 08:09:56;;;;;;;1.67;0.80;;;16.90;54.20;;;;;;4947746;29;20043;-70
2021/12/29 08:12:22;;;;;;;1.63;0.80;;;17.00;54.20;;;;;;4947883;29;20039;-70
2021/12/29 08:14:49;;;;;;;2.75;0.93;;;17.00;54.20;;;;;;4947722;29;20098;-70
2021/12/29 08:17:15;;;;;;;1.98;0.80;;;16.90;54.20;;;;;;4947531;29;20081;-70
2021/12/29 08:19:41;;;;;;;2.15;0.90;;;17.00;54.20;;;;;;4948233;29;20039;-69
2021/12/29 08:22:07;;;;;;;1.75;0.80;;;16.90;54.20;;;;;;4947633;29;20046;-71
2021/12/29 08:24:33;;;;;;;1.50;0.82;;;16.90;54.20;;;;;;4949621;28;20027;-70
2021/12/29 08:26:58;;;;;;;2.17;0.93;;;16.90;54.10;;;;;;4951240;29;20510;-70
2021/12/29 08:29:24;;;;;;;1.92;0.90;;;16.90;54.20;;;;;;4951547;29;20020;-70
2021/12/29 08:31:49;;;;;;;2.47;0.90;;;16.90;54.20;;;;;;4951094;29;20035;-72
2021/12/29 08:34:16;;;;;;;1.42;0.80;;;16.90;54.20;;;;;;4951017;29;20079;-70
2021/12/29 08:36:42;;;;;;;2.22;0.85;;;16.90;54.20;;;;;;4951205;29;20032;-70
2021/12/29 08:39:08;;;;;;;3.03;0.93;;;16.90;54.20;;;;;;4950550;29;20038;-70
2021/12/29 08:41:34;;;;;;;2.53;0.80;;;16.90;54.20;;;;;;4951141;29;20831;-70
2021/12/29 08:44:00;;;;;;;1.55;0.80;;;16.90;54.20;;;;;;4956533;28;20057;-70
2021/12/29 08:46:28;;;;;;;1.42;0.68;;;16.90;54.20;;;;;;4969640;28;20040;-70
2021/12/29 08:48:53;;;;;;;2.80;0.80;;;16.90;54.20;;;;;;4969689;28;20049;-69
2021/12/29 08:51:20;;;;;;;1.60;0.70;;;16.90;54.20;;;;;;4970193;28;20030;-70
2021/12/29 08:53:47;;;;;;;1.30;0.50;;;16.90;54.20;;;;;;4970193;28;20683;-70
2021/12/29 08:56:16;;;;;;;2.55;0.95;;;16.90;54.20;;;;;;4969892;28;20090;-70
2021/12/29 08:58:45;;;;;;;2.88;1.08;;;16.90;54.20;;;;;;4970099;28;20027;-70
2021/12/29 09:01:12;;;;;;;2.70;1.00;;;16.90;55.20;;;;;;4970200;28;20732;-70
2021/12/29 09:03:37;;;;;;;2.95;0.93;;;16.90;54.30;;;;;;4970160;28;20030;-70
2021/12/29 09:06:03;;;;;;;1.90;0.80;;;16.90;54.30;;;;;;4969968;28;20548;-70
2021/12/29 09:08:29;;;;;;;2.42;0.90;;;16.90;54.30;;;;;;4970271;28;20058;-70
2021/12/29 09:10:55;;;;;;;1.50;0.60;;;16.90;55.30;;;;;;4969641;28;20027;-69
2021/12/29 09:13:21;;;;;;;2.70;0.90;;;16.90;54.30;;;;;;4969852;28;20494;-69
2021/12/29 09:15:47;;;;;;;1.85;0.77;;;16.90;54.30;;;;;;4969804;28;20026;-69
2021/12/29 09:18:12;;;;;;;2.20;0.95;;;16.90;54.30;;;;;;4969584;28;20054;-69
2021/12/29 09:20:45;;;;;;;1.67;0.90;;;16.90;54.30;;;;;;4969428;28;20031;-69
2021/12/29 09:23:12;;;;;;;1.98;0.75;;;16.90;54.40;;;;;;4969469;28;20462;-68
2021/12/29 09:25:41;;;;;;;2.42;1.00;;;16.90;54.30;;;;;;4969767;28;20850;-69
2021/12/29 09:28:10;;;;;;;2.75;0.90;;;16.80;54.40;;;;;;4970046;28;20031;-69
2021/12/29 09:30:39;;;;;;;1.63;0.85;;;16.80;54.30;;;;;;4969807;28;20110;-70
2021/12/29 09:33:07;;;;;;;1.60;0.68;;;16.80;54.30;;;;;;4969265;28;20043;-69
2021/12/29 09:35:34;;;;;;;1.83;0.82;;;16.80;54.30;;;;;;4969502;28;20030;-69
2021/12/29 09:37:59;;;;;;;1.73;0.80;;;16.80;54.40;;;;;;4969355;28;20035;-70
2021/12/29 09:40:25;;;;;;;3.08;1.05;;;16.80;55.30;;;;;;4969223;28;20038;-70
2021/12/29 09:42:54;;;;;;;1.67;0.80;;;16.80;54.30;;;;;;4969138;28;20078;-69
2021/12/29 09:45:20;;;;;;;3.53;0.93;;;16.80;54.30;;;;;;4969611;28;20057;-69
2021/12/29 09:47:46;;;;;;;2.38;0.98;;;16.80;54.30;;;;;;4969725;28;20023;-70
2021/12/29 09:50:16;;;;;;;2.22;0.90;;;16.80;54.40;;;;;;4969550;28;20062;-71
2021/12/29 09:52:42;;;;;;;3.63;1.00;;;16.80;54.40;;;;;;4969288;28;20109;-69
2021/12/29 09:55:12;;;;;;;3.45;1.20;;;16.80;54.30;;;;;;4968583;28;20125;-69
2021/12/29 09:57:44;;;;;;;2.90;0.93;;;16.80;54.40;;;;;;4968910;28;20035;-69
2021/12/29 10:00:19;;;;;;;4.68;1.05;;;16.80;54.40;;;;;;4968778;28;20038;-69
2021/12/29 10:02:45;;;;;;;4.25;1.23;;;16.80;54.40;;;;;;4969361;28;20034;-70
2021/12/29 10:05:11;;;;;;;2.88;1.00;;;16.70;54.40;;;;;;4968638;28;20037;-69
2021/12/29 10:07:37;;;;;;;2.63;0.90;;;16.80;54.50;;;;;;4969020;28;20035;-71
2021/12/29 10:10:15;;;;;;;3.05;1.00;;;16.80;54.70;;;;;;4968887;28;20490;-69
2021/12/29 10:12:42;;;;;;;3.70;1.00;;;16.80;54.70;;;;;;4968934;28;20089;-69
2021/12/29 10:15:08;;;;;;;2.53;1.00;;;16.80;54.90;;;;;;4968485;28;20027;-69
2021/12/29 10:17:34;;;;;;;5.72;1.15;;;16.80;54.90;;;;;;4967897;28;20046;-70
2021/12/29 10:20:06;;;;;;;2.25;1.20;;;16.80;55.00;;;;;;4968387;28;20482;-70
2021/12/29 10:22:32;;;;;;;3.10;1.35;;;16.80;55.10;;;;;;4968240;28;20034;-70
2021/12/29 10:25:02;;;;;;;4.15;1.20;;;16.80;55.10;;;;;;4970403;28;20031;-70
2021/12/29 10:27:30;;;;;;;4.07;0.93;;;16.80;55.20;;;;;;4968658;28;20027;-68
2021/12/29 10:29:56;;;;;;;4.90;1.17;;;16.80;55.20;;;;;;4968832;28;20041;-69
2021/12/29 10:32:23;;;;;;;4.28;1.00;;;16.80;55.30;;;;;;4968828;28;20027;-70
2021/12/29 10:34:51;;;;;;;4.53;1.13;;;16.80;55.30;;;;;;4968439;28;20122;-71
2021/12/29 10:37:17;;;;;;;4.55;1.00;;;16.80;55.20;;;;;;4968644;28;20046;-69
2021/12/29 10:39:50;;;;;;;6.00;1.35;;;16.80;55.20;;;;;;4968126;28;20514;-70
2021/12/29 10:42:20;;;;;;;5.07;1.50;;;16.80;55.30;;;;;;4967954;28;20035;-68
2021/12/29 10:44:59;;;;;;;2.25;0.80;;;16.80;55.40;;;;;;4967987;28;20051;-70
2021/12/29 10:47:29;;;;;;;3.42;1.10;;;16.80;55.30;;;;;;4968066;28;20030;-69
2021/12/29 10:50:04;;;;;;;3.55;1.10;;;16.80;55.40;;;;;;4950808;28;20774;-69
2021/12/29 10:52:59;;;;;;;2.35;1.15;;;16.70;55.30;;;;;;4968282;28;20039;-69
2021/12/29 10:55:31;;;;;;;6.72;1.45;;;16.70;55.30;;;;;;4951071;28;20049;-70
2021/12/29 10:58:11;;;;;;;3.97;1.23;;;16.70;55.30;;;;;;4968169;28;20035;-69
2021/12/29 11:00:39;;;;;;;4.90;1.20;;;16.70;55.30;;;;;;4968418;28;20043;-70
2021/12/29 11:03:18;;;;;;;3.60;1.30;;;16.70;55.30;;;;;;4968154;28;20030;-70
2021/12/29 11:05:50;;;;;;;3.65;1.20;;;16.70;55.30;;;;;;4968605;28;20038;-71
2021/12/29 11:08:17;;;;;;;4.03;1.40;;;16.70;55.30;;;;;;4968415;28;20034;-69
2021/12/29 11:10:44;;;;;;;3.53;1.20;;;16.70;55.30;;;;;;4968454;28;20077;-69
2021/12/29 11:13:12;;;;;;;2.33;1.23;;;16.70;55.30;;;;;;4968048;28;20545;-69
2021/12/29 11:15:41;;;;;;;4.25;1.35;;;16.70;55.30;;;;;;4967822;28;20031;-70
2021/12/29 11:18:12;;;;;;;2.42;0.95;;;16.70;55.30;;;;;;4967880;28;20071;-73
2021/12/29 11:20:39;;;;;;;3.60;1.45;;;16.70;55.40;;;;;;4968140;28;20030;-70
2021/12/29 11:23:19;;;;;;;1.80;1.08;;;16.70;55.30;;;;;;4967033;28;20027;-69
2021/12/29 11:25:45;;;;;;;3.65;1.20;;;16.70;55.40;;;;;;4967688;28;20063;-70
2021/12/29 11:28:27;;;;;;;3.00;1.20;;;16.70;55.40;;;;;;4967668;28;20030;-72
2021/12/29 11:30:54;;;;;;;2.95;1.08;;;16.70;55.40;;;;;;4967503;28;20050;-70
2021/12/29 11:33:20;;;;;;;4.97;0.90;;;16.70;55.30;;;;;;4967540;28;20494;-71
2021/12/29 11:35:49;;;;;;;5.00;1.15;;;16.70;55.30;;;;;;4968028;28;20038;-69
2021/12/29 11:38:16;;;;;;;3.97;1.27;;;16.70;55.30;;;;;;4967812;28;20035;-70
2021/12/29 11:40:46;;;;;;;3.15;1.30;;;16.70;55.30;;;;;;4967886;28;20023;-70
2021/12/29 11:43:13;;;;;;;3.83;1.20;;;16.70;55.40;;;;;;4967981;28;20045;-69
2021/12/29 11:45:40;;;;;;;3.88;1.20;;;16.70;55.40;;;;;;4967942;28;20150;-69
2021/12/29 11:48:08;;;;;;;4.18;1.23;;;16.80;55.40;;;;;;4968003;28;20037;-69
2021/12/29 11:50:38;;;;;;;3.08;1.10;;;16.70;55.40;;;;;;4967528;28;20023;-69
2021/12/29 11:53:07;;;;;;;3.60;1.02;;;16.80;55.40;;;;;;4967461;28;20023;-70
2021/12/29 11:55:39;;;;;;;3.03;1.20;;;16.80;55.40;;;;;;4967399;28;20030;-70
2021/12/29 11:58:18;;;;;;;8.77;1.30;;;16.70;55.40;;;;;;4967479;28;20039;-69
2021/12/29 12:01:04;;;;;;;5.40;1.60;;;16.70;55.40;;;;;;4971428;28;20058;-70
2021/12/29 12:03:48;;;;;;;4.13;1.17;;;16.80;55.50;;;;;;4971515;28;20029;-69
2021/12/29 12:06:19;;;;;;;;;;;16.80;55.60;;;;;;4972194;28;20039;-69
2021/12/29 12:08:45;;;;;;;2.58;1.40;;;16.70;55.40;;;;;;4971530;28;19906;-70
2021/12/29 12:11:29;;;;;;;4.65;1.25;;;16.70;55.60;;;;;;4971331;28;20031;-69
2021/12/29 12:13:56;;;;;;;3.92;1.50;;;16.70;55.50;;;;;;4970769;28;20034;-70
2021/12/29 12:16:22;;;;;;;3.33;1.30;;;16.70;55.50;;;;;;4971097;28;20039;-69
2021/12/29 12:18:54;;;;;;;2.63;1.30;;;16.70;55.40;;;;;;4971429;28;20081;-70
2021/12/29 12:21:31;;;;;;;2.22;1.30;;;16.80;55.50;;;;;;4971807;28;20027;-71
2021/12/29 12:24:20;;;;;;;3.35;0.98;;;16.70;55.50;;;;;;4972099;28;20031;-71
2021/12/29 12:26:59;;;;;;;2.72;1.30;;;16.80;55.50;;;;;;4971392;28;20401;-71
2021/12/29 12:29:32;;;;;;;2.30;1.10;;;16.80;55.50;;;;;;4971697;28;20828;-71
2021/12/29 12:32:07;;;;;;;3.13;1.25;;;16.80;55.50;;;;;;4971831;28;20085;-69
2021/12/29 12:34:49;;;;;;;3.10;1.38;;;16.70;55.40;;;;;;4971505;28;20077;-70
2021/12/29 12:37:19;;;;;;;3.60;1.30;;;16.80;55.50;;;;;;4971280;28;20444;-70
2021/12/29 12:39:58;;;;;;;2.45;1.17;;;16.70;55.40;;;;;;4971017;28;20093;-70
2021/12/29 12:42:25;;;;;;;2.45;1.00;;;16.80;55.50;;;;;;4954291;28;20479;-70
2021/12/29 12:44:51;;;;;;;3.65;1.17;;;16.80;55.50;;;;;;4971483;28;20339;-69
2021/12/29 12:47:16;;;;;;;3.95;1.27;;;16.80;55.50;;;;;;4971374;28;20470;-69
2021/12/29 12:49:50;;;;;;;4.35;1.45;;;16.80;55.40;;;;;;4971405;28;20062;-70
2021/12/29 12:52:16;;;;;;;;;;;16.80;55.40;;;;;;4972046;28;20030;-70
2021/12/29 12:54:55;;;;;;;3.28;1.30;;;16.80;55.40;;;;;;4971584;28;19945;-70
2021/12/29 12:57:33;;;;;;;2.88;1.15;;;16.80;55.50;;;;;;4970270;28;20123;-70
2021/12/29 13:00:13;;;;;;;2.08;1.13;;;16.80;55.40;;;;;;4970187;28;20147;-70
2021/12/29 13:02:42;;;;;;;1.65;1.15;;;16.80;55.40;;;;;;4969982;28;20034;-70
2021/12/29 13:05:17;;;;;;;3.42;1.30;;;16.80;55.40;;;;;;4970462;28;20031;-69
2021/12/29 13:07:51;;;;;;;2.20;0.98;;;16.80;55.30;;;;;;4971585;28;20054;-70
2021/12/29 13:10:25;;;;;;;2.55;1.00;;;16.80;55.40;;;;;;4970471;28;20463;-69
2021/12/29 13:12:57;;;;;;;2.60;1.13;;;16.90;55.40;;;;;;4970324;28;20023;-70
2021/12/29 13:15:24;;;;;;;2.50;1.20;;;16.80;55.20;;;;;;4970788;28;20027;-70
2021/12/29 13:17:50;;;;;;;2.90;1.38;;;16.90;55.20;;;;;;4970139;28;20043;-69
2021/12/29 13:20:17;;;;;;;2.42;1.30;;;16.90;55.20;;;;;;4969761;28;20027;-69
2021/12/29 13:22:43;;;;;;;2.63;1.20;;;16.90;55.20;;;;;;4969394;28;20019;-69
2021/12/29 13:25:10;;;;;;;2.63;1.30;;;16.90;55.20;;;;;;4969861;28;20027;-69
2021/12/29 13:27:38;;;;;;;2.08;1.10;;;16.90;55.10;;;;;;4970084;28;20041;-70
2021/12/29 13:30:13;;;;;;;1.75;1.10;;;16.90;55.10;;;;;;4970158;28;20030;-69
2021/12/29 13:32:53;;;;;;;2.85;1.40;;;16.90;56.00;;;;;;4970115;28;20019;-69
2021/12/29 13:35:34;;;;;;;2.00;1.20;;;16.90;55.00;;;;;;4969597;28;20077;-70
2021/12/29 13:38:04;;;;;;;2.97;1.60;;;16.90;55.00;;;;;;4969638;28;20144;-72
2021/12/29 13:40:45;;;;;;;3.70;1.50;;;16.90;55.00;;;;;;4969333;28;20109;-69
2021/12/29 13:43:16;;;;;;;3.00;1.33;;;16.90;55.00;;;;;;4969041;28;20041;-69
2021/12/29 13:45:42;;;;;;;2.30;1.15;;;16.90;55.00;;;;;;4969526;28;20023;-69
2021/12/29 13:48:14;;;;;;;3.55;1.30;;;16.90;54.90;;;;;;4969312;28;20093;-71
2021/12/29 13:50:41;;;;;;;2.92;1.20;;;17.00;56.00;;;;;;4969444;28;20054;-69
2021/12/29 13:53:10;;;;;;;3.05;1.40;;;16.90;54.90;;;;;;4969422;28;20037;-72
2021/12/29 13:55:41;;;;;;;2.83;1.27;;;16.90;54.80;;;;;;4969029;28;20066;-69
2021/12/29 13:58:13;;;;;;;2.90;1.30;;;16.90;54.80;;;;;;4969161;28;20049;-70
2021/12/29 14:00:38;;;;;;;2.10;1.20;;;17.00;54.90;;;;;;4969507;28;20030;-70
2021/12/29 14:03:05;;;;;;;1.67;1.13;;;16.90;54.90;;;;;;4968927;28;20038;-70
2021/12/29 14:05:49;;;;;;;2.28;1.20;;;16.90;54.80;;;;;;4969033;28;20362;-70
2021/12/29 14:08:18;;;;;;;2.25;1.10;;;17.00;54.80;;;;;;4968585;28;20470;-70
2021/12/29 14:10:45;;;;;;;1.98;1.10;;;17.00;54.80;;;;;;4969160;28;20035;-70
2021/12/29 14:13:17;;;;;;;3.30;1.60;;;17.00;54.80;;;;;;4969074;28;20053;-70
2021/12/29 14:15:44;;;;;;;2.77;1.40;;;17.00;54.80;;;;;;4968797;28;20030;-70
2021/12/29 14:18:19;;;;;;;2.95;1.38;;;17.00;54.80;;;;;;4969232;28;20088;-70
2021/12/29 14:20:44;;;;;;;2.85;1.25;;;17.00;54.80;;;;;;4970849;28;20038;-70
2021/12/29 14:23:10;;;;;;;3.85;1.50;;;17.00;54.70;;;;;;4968238;28;20031;-69
2021/12/29 14:25:39;;;;;;;2.50;1.40;;;17.00;54.70;;;;;;4968547;28;20430;-69
2021/12/29 14:28:14;;;;;;;2.08;1.30;;;17.00;54.60;;;;;;4968517;28;20039;-70
2021/12/29 14:30:44;;;;;;;2.40;1.33;;;17.00;54.70;;;;;;4968338;28;20320;-70
2021/12/29 14:33:11;;;;;;;2.42;1.50;;;17.00;54.60;;;;;;4968144;28;20027;-71
2021/12/29 14:35:48;;;;;;;1.85;1.20;;;17.00;54.60;;;;;;4967890;28;20023;-70
2021/12/29 14:38:14;;;;;;;2.50;1.40;;;17.00;54.60;;;;;;4968231;28;20038;-70
2021/12/29 14:40:41;;;;;;;2.60;1.30;;;17.00;54.70;;;;;;4967936;28;20046;-71